»·PEaware :: PSV1 KSJC-KBUR

PSV1 :: KSJC-KBUR

FLIGHT INFORMATION

Flight Status: Arrived
Operator:
Power Set Virtual (website)
More flights by this operator :: More flights under this callsign
Pilot: Max W. (2591)
Aircraft: AIRBUS A321
(A321)
More flights by this aircraft type
Origin: KSJC Mineta San Jose Intl
United States
Destination: KBUR Bob Hope-Burbank
United States
More flights between these airports :: More routes between these airports
Route: TECKY3 EBAYE BURGL HONZK ROKKR2
File this flight plan on PilotEdge
Remarks:
Altitude:
(Current/Filed)
33,000ft
Speed:
(Current/Filed)
450kts
Departed: 19-Nov-20 03:34 PM
Arrived: 19-Nov-20 04:21 PM
Distance/Time
Traveled:
258nm/0:47
Distance/Time
To Go:
Arrived

Flight Plot

Page will automatically refresh every two minutes.

Flight plan parsing failed; only flown route is shown


Map Options




Map Legend


Flown Route
Filed Route
Departure Airport
Arrival Airport
Navaid (VOR, NDB)
Fix

Horizontal Profiles

Position Reports

Time Latitude Longitude Heading Altitude Ground
Speed
19-Nov-20 14:46 37.364683 -121.925036 49 53ft 0kts
19-Nov-20 14:47 37.364683 -121.925036 49 53ft 0kts
19-Nov-20 14:48 37.364683 -121.925036 49 53ft 0kts
19-Nov-20 14:49 37.364683 -121.925036 49 53ft 0kts
19-Nov-20 14:50 37.364683 -121.925036 49 53ft 0kts
19-Nov-20 14:51 37.364683 -121.925036 49 53ft 0kts
19-Nov-20 14:52 37.364683 -121.925036 49 53ft 0kts
19-Nov-20 14:53 37.364683 -121.925036 49 53ft 0kts
19-Nov-20 14:54 37.364683 -121.925036 49 53ft 0kts
19-Nov-20 14:55 37.364683 -121.925036 49 53ft 0kts
19-Nov-20 14:56 37.364683 -121.925036 49 53ft 0kts
19-Nov-20 14:57 37.364683 -121.925036 49 53ft 0kts
19-Nov-20 14:58 37.364683 -121.925036 49 53ft 0kts
19-Nov-20 14:59 37.364683 -121.925036 49 53ft 0kts
19-Nov-20 14:59 37.364683 -121.925036 49 53ft 0kts
19-Nov-20 15:01 37.364683 -121.925036 49 53ft 0kts
19-Nov-20 15:02 37.364683 -121.925036 49 53ft 0kts
19-Nov-20 15:03 37.364683 -121.925036 49 53ft 0kts
19-Nov-20 15:03 37.364683 -121.925036 49 53ft 0kts
19-Nov-20 15:04 37.364683 -121.925036 49 53ft 0kts
19-Nov-20 15:05 37.364683 -121.925036 49 53ft 0kts
19-Nov-20 15:06 37.364683 -121.925036 49 53ft 0kts
19-Nov-20 15:07 37.364683 -121.925036 49 53ft 0kts
19-Nov-20 15:08 37.364683 -121.925036 49 53ft 0kts
19-Nov-20 15:09 37.364683 -121.925036 49 53ft 0kts
19-Nov-20 15:10 37.364683 -121.925036 49 53ft 0kts
19-Nov-20 15:11 37.364683 -121.925036 49 53ft 0kts
19-Nov-20 15:12 37.364683 -121.925036 49 53ft 0kts
19-Nov-20 15:13 37.364683 -121.925036 49 53ft 0kts
19-Nov-20 15:14 37.364683 -121.925036 49 53ft 0kts
19-Nov-20 15:15 37.364683 -121.925036 49 53ft 0kts
19-Nov-20 15:16 37.364683 -121.925036 49 53ft 0kts
19-Nov-20 15:17 37.364683 -121.925036 49 53ft 0kts
19-Nov-20 15:18 37.364683 -121.925036 49 53ft 0kts
19-Nov-20 15:19 37.364683 -121.925036 49 53ft 0kts
19-Nov-20 15:20 37.364514 -121.925516 84 53ft 2kts
19-Nov-20 15:21 37.364684 -121.926216 131 53ft 2kts
19-Nov-20 15:22 37.365135 -121.926711 139 53ft 2kts
19-Nov-20 15:23 37.365427 -121.927027 139 53ft 0kts
19-Nov-20 15:24 37.365427 -121.927027 139 53ft 0kts
19-Nov-20 15:25 37.365393 -121.926990 139 53ft 1kts
19-Nov-20 15:26 37.363611 -121.925090 139 53ft 8kts
19-Nov-20 15:27 37.362011 -121.923280 138 53ft 5kts
19-Nov-20 15:28 37.360225 -121.921351 139 53ft 12kts
19-Nov-20 15:29 37.358495 -121.919443 138 53ft 11kts
19-Nov-20 15:30 37.357173 -121.917987 139 53ft 4kts
19-Nov-20 15:31 37.354229 -121.914775 137 53ft 14kts
19-Nov-20 15:32 37.352527 -121.915590 305 53ft 5kts
19-Nov-20 15:33 37.369766 -121.934225 319 1432ft 176kts
19-Nov-20 15:34 37.408942 -121.973093 344 4910ft 209kts
19-Nov-20 15:35 37.439280 -121.915254 122 4983ft 272kts
19-Nov-20 15:36 37.381063 -121.851525 135 7453ft 283kts
19-Nov-20 15:37 37.322718 -121.780713 139 10911ft 311kts
19-Nov-20 15:38 37.252826 -121.701611 141 13600ft 356kts
19-Nov-20 15:39 37.177181 -121.616027 142 16727ft 376kts
19-Nov-20 15:40 37.097361 -121.526026 143 19144ft 395kts
19-Nov-20 15:41 37.013421 -121.434134 146 21531ft 407kts
19-Nov-20 15:42 36.925407 -121.340702 147 23900ft 423kts
19-Nov-20 15:43 36.837424 -121.247124 147 25978ft 434kts
19-Nov-20 15:44 36.744306 -121.148598 148 27891ft 445kts
19-Nov-20 15:45 36.649025 -121.047999 148 29623ft 455kts
19-Nov-20 15:46 36.552133 -120.947706 149 31463ft 454kts
19-Nov-20 15:47 36.453191 -120.847564 149 32846ft 463kts
19-Nov-20 15:48 36.351759 -120.744897 148 33239ft 475kts
19-Nov-20 15:49 36.249687 -120.641792 148 33228ft 474kts
19-Nov-20 15:50 36.147289 -120.538814 148 33226ft 474kts
19-Nov-20 15:51 36.044933 -120.436227 148 33222ft 474kts
19-Nov-20 15:52 35.943490 -120.334897 148 33228ft 473kts
19-Nov-20 15:53 35.845657 -120.242650 155 33231ft 464kts
19-Nov-20 15:54 35.735620 -120.159903 156 33225ft 463kts
19-Nov-20 15:55 35.622242 -120.087388 167 33222ft 452kts
19-Nov-20 15:56 35.502818 -120.033442 167 33221ft 464kts
19-Nov-20 15:57 35.381970 -119.978729 167 33202ft 463kts
19-Nov-20 15:58 35.260723 -119.924024 166 30196ft 472kts
19-Nov-20 15:59 35.138094 -119.868446 163 26130ft 479kts
19-Nov-20 16:00 35.028486 -119.776414 144 23109ft 471kts
19-Nov-20 16:01 34.931829 -119.676328 145 21094ft 441kts
19-Nov-20 16:02 34.863571 -119.601157 137 20410ft 411kts
19-Nov-20 16:03 34.793843 -119.497929 133 18557ft 388kts
19-Nov-20 16:04 34.727527 -119.397485 132 16830ft 374kts
19-Nov-20 16:05 34.663022 -119.298820 132 14826ft 367kts
19-Nov-20 16:06 34.610602 -119.202839 123 13465ft 347kts
19-Nov-20 16:07 34.562072 -119.104294 123 11938ft 332kts
19-Nov-20 16:08 34.502903 -119.030563 146 11050ft 298kts
19-Nov-20 16:09 34.447235 -118.958115 122 9626ft 297kts
19-Nov-20 16:10 34.403910 -118.875360 121 8253ft 276kts
19-Nov-20 16:11 34.368635 -118.803642 109 6789ft 234kts
19-Nov-20 16:12 34.354595 -118.727584 96 5522ft 228kts
19-Nov-20 16:13 34.346075 -118.652871 96 5023ft 221kts
19-Nov-20 16:14 34.338020 -118.579810 96 5046ft 205kts
19-Nov-20 16:15 34.330698 -118.513469 96 4993ft 181kts
19-Nov-20 16:16 34.323300 -118.452529 107 4044ft 183kts
19-Nov-20 16:17 34.295881 -118.401637 123 3040ft 173kts
19-Nov-20 16:18 34.260001 -118.373284 167 2174ft 146kts
19-Nov-20 16:19 34.222176 -118.363267 163 1047ft 138kts
19-Nov-20 16:20 34.196582 -118.356089 166 785ft 24kts

Navigation Log

Ident Type
Flight plan parsing failed, navigation log unavailable